createdAt,value
2017-09-21T00:01:45.784Z,16.19
2017-09-21T00:04:14.436Z,16.19
2017-09-21T00:06:42.881Z,16.28
2017-09-21T00:09:11.323Z,16.19
2017-09-21T00:11:40.205Z,16.16
2017-09-21T00:14:08.592Z,16.11
2017-09-21T00:16:37.010Z,16.04
2017-09-21T00:19:06.710Z,16.04
2017-09-21T00:21:35.105Z,16.08
2017-09-21T00:24:04.308Z,16.11
2017-09-21T00:26:33.222Z,16.10
2017-09-21T00:29:01.635Z,16.16
2017-09-21T00:31:30.282Z,16.06
2017-09-21T00:33:59.209Z,16.02
2017-09-21T00:36:27.660Z,15.88
2017-09-21T00:38:56.109Z,15.77
2017-09-21T00:41:24.898Z,15.89
2017-09-21T00:43:53.370Z,15.94
2017-09-21T00:46:22.610Z,15.95
2017-09-21T00:48:51.361Z,15.95
2017-09-21T00:51:19.831Z,15.96
2017-09-21T00:53:48.323Z,16.04
2017-09-21T00:56:17.033Z,16.05
2017-09-21T00:58:46.267Z,16.05
2017-09-21T01:01:15.656Z,16.09
2017-09-21T01:03:44.489Z,16.09
2017-09-21T01:06:12.963Z,16.11
2017-09-21T01:08:41.414Z,16.11
2017-09-21T01:11:10.128Z,16.11
2017-09-21T01:13:38.656Z,16.12
2017-09-21T01:16:07.055Z,16.09
2017-09-21T01:18:35.984Z,16.08
2017-09-21T01:21:04.448Z,16.13
2017-09-21T01:23:32.813Z,15.92
2017-09-21T01:26:01.733Z,15.97
2017-09-21T01:28:30.126Z,15.97
2017-09-21T01:30:58.581Z,16.14
2017-09-21T01:33:27.491Z,16.13
2017-09-21T01:35:55.988Z,16.07
2017-09-21T01:38:25.283Z,16.13
2017-09-21T01:40:54.065Z,16.22
2017-09-21T01:43:23.186Z,16.15
2017-09-21T01:45:51.649Z,16.27
2017-09-21T01:48:34.823Z,16.25
2017-09-21T01:51:03.323Z,16.26
2017-09-21T01:53:32.588Z,16.14
2017-09-21T01:56:02.162Z,16.27
2017-09-21T01:58:31.543Z,16.32
2017-09-21T02:01:00.140Z,16.23
2017-09-21T02:03:28.796Z,16.26
2017-09-21T02:05:57.232Z,16.38
2017-09-21T02:08:25.647Z,16.40
2017-09-21T02:10:54.881Z,16.49
2017-09-21T02:13:23.289Z,16.47
2017-09-21T02:15:51.730Z,16.44
2017-09-21T02:18:20.476Z,16.59
2017-09-21T02:20:48.991Z,16.50
2017-09-21T02:23:17.462Z,16.48
2017-09-21T02:25:46.463Z,16.58
2017-09-21T02:28:15.313Z,16.55
2017-09-21T02:30:44.519Z,16.62
2017-09-21T02:33:14.579Z,16.51
2017-09-21T02:35:43.090Z,16.50
2017-09-21T02:38:11.555Z,16.51
2017-09-21T02:40:40.507Z,16.50
2017-09-21T02:43:09.803Z,16.41
2017-09-21T02:45:39.032Z,16.36
2017-09-21T02:48:07.856Z,16.23
2017-09-21T02:50:37.107Z,16.28
2017-09-21T02:53:05.563Z,16.34
2017-09-21T02:55:34.503Z,16.35
2017-09-21T02:58:03.079Z,16.51
2017-09-21T03:00:31.495Z,16.46
2017-09-21T03:03:00.235Z,16.41
2017-09-21T03:05:28.691Z,16.41
2017-09-21T03:07:57.110Z,16.38
2017-09-21T03:10:25.830Z,16.40
2017-09-21T03:12:54.257Z,16.55
2017-09-21T03:15:22.725Z,16.48
2017-09-21T03:17:51.576Z,16.73
2017-09-21T03:20:20.006Z,16.76
2017-09-21T03:22:50.003Z,16.51
2017-09-21T03:25:18.970Z,16.41
2017-09-21T03:27:47.427Z,16.42
2017-09-21T03:30:15.897Z,16.46
2017-09-21T03:32:45.025Z,16.49
2017-09-21T03:35:13.469Z,16.57
2017-09-21T03:37:41.904Z,16.49
2017-09-21T03:40:10.874Z,16.36
2017-09-21T03:42:39.298Z,16.25
2017-09-21T03:45:07.761Z,16.26
2017-09-21T03:47:36.540Z,16.20
2017-09-21T03:50:05.053Z,16.06
2017-09-21T03:52:34.182Z,16.12
2017-09-21T03:55:02.980Z,15.93
2017-09-21T03:57:31.383Z,15.87
2017-09-21T03:59:59.957Z,15.92
2017-09-21T04:02:29.711Z,16.05
2017-09-21T04:04:58.081Z,15.99
2017-09-21T04:07:26.734Z,15.94
2017-09-21T04:09:55.458Z,16.04
2017-09-21T04:12:25.523Z,16.20
2017-09-21T04:14:53.933Z,16.03
2017-09-21T04:17:22.673Z,15.95
2017-09-21T04:19:51.849Z,15.91
2017-09-21T04:22:20.273Z,15.98
2017-09-21T04:24:49.219Z,16.11
2017-09-21T04:27:17.647Z,16.05
2017-09-21T04:29:46.092Z,15.85
2017-09-21T04:32:15.566Z,15.90
2017-09-21T04:34:44.018Z,15.96
2017-09-21T04:37:12.403Z,15.98
2017-09-21T04:39:41.320Z,15.93
2017-09-21T04:42:09.659Z,15.89
2017-09-21T04:44:39.070Z,15.90
2017-09-21T04:47:07.928Z,15.79
2017-09-21T04:49:36.584Z,15.82
2017-09-21T04:52:04.978Z,15.82
2017-09-21T04:54:33.847Z,15.87
2017-09-21T04:57:02.297Z,15.83
2017-09-21T04:59:30.736Z,15.73
2017-09-21T05:01:59.384Z,15.87
2017-09-21T05:04:27.801Z,15.78
2017-09-21T05:06:56.204Z,15.60
2017-09-21T05:09:25.209Z,15.71
2017-09-21T05:11:53.656Z,15.80
2017-09-21T05:14:22.028Z,15.72
2017-09-21T05:16:50.726Z,15.70
2017-09-21T05:19:19.148Z,15.91
2017-09-21T05:21:47.514Z,15.98
2017-09-21T05:24:16.234Z,15.86
2017-09-21T05:26:44.821Z,16.01
2017-09-21T05:29:13.174Z,16.02
2017-09-21T05:31:41.951Z,16.04
2017-09-21T05:34:10.453Z,16.04
2017-09-21T05:36:39.139Z,16.02
2017-09-21T05:39:08.005Z,16.03
2017-09-21T05:41:36.384Z,16.02
2017-09-21T05:44:04.753Z,16.04
2017-09-21T05:46:33.661Z,15.96
2017-09-21T05:49:02.023Z,16.04
2017-09-21T05:51:31.015Z,16.05
2017-09-21T05:54:00.147Z,16.08
2017-09-21T05:56:28.499Z,16.24
2017-09-21T05:58:56.864Z,16.27
2017-09-21T06:01:26.394Z,16.39
2017-09-21T06:03:54.747Z,16.41
2017-09-21T06:06:23.859Z,16.42
2017-09-21T06:08:53.318Z,16.27
2017-09-21T06:11:21.900Z,16.31
2017-09-21T06:13:51.082Z,16.43
2017-09-21T06:16:20.037Z,16.51
2017-09-21T06:18:49.138Z,16.64
2017-09-21T06:21:17.731Z,16.79
2017-09-21T06:23:46.634Z,16.89
2017-09-21T06:26:14.991Z,16.70
2017-09-21T06:28:43.344Z,16.77
2017-09-21T06:31:12.881Z,16.68
2017-09-21T06:33:41.729Z,16.46
2017-09-21T06:36:10.093Z,16.57
2017-09-21T06:38:39.062Z,16.81
2017-09-21T06:41:08.122Z,16.73
2017-09-21T06:43:38.050Z,16.56
2017-09-21T06:46:06.693Z,16.35
2017-09-21T06:48:35.072Z,16.41
2017-09-21T06:51:03.405Z,16.87
2017-09-21T06:53:32.079Z,17.16
2017-09-21T06:56:00.490Z,17.26
2017-09-21T06:58:28.876Z,17.39
2017-09-21T07:00:58.374Z,17.41
2017-09-21T07:03:26.772Z,17.81
2017-09-21T07:05:55.112Z,18.26
2017-09-21T07:08:23.794Z,18.69
2017-09-21T07:10:52.139Z,18.67
2017-09-21T07:13:21.297Z,18.77
2017-09-21T07:15:50.053Z,18.75
2017-09-21T07:18:18.453Z,18.75
2017-09-21T07:20:46.816Z,18.64
2017-09-21T07:23:15.704Z,18.87
2017-09-21T07:25:44.062Z,18.93
2017-09-21T07:28:13.194Z,18.93
2017-09-21T07:30:42.183Z,18.68
2017-09-21T07:33:10.551Z,19.00
2017-09-21T07:35:38.904Z,19.36
2017-09-21T07:38:07.643Z,19.40
2017-09-21T07:40:35.989Z,18.82
2017-09-21T07:43:05.118Z,19.04
2017-09-21T07:45:33.823Z,19.92
2017-09-21T07:48:02.229Z,21.32
2017-09-21T07:50:31.360Z,23.05
2017-09-21T07:53:00.178Z,24.31
2017-09-21T07:55:28.549Z,25.22
2017-09-21T07:57:58.745Z,27.03
2017-09-21T08:00:27.659Z,27.63
2017-09-21T08:02:56.038Z,26.88
2017-09-21T08:05:24.496Z,26.39
2017-09-21T08:07:53.518Z,26.44
2017-09-21T08:10:22.821Z,25.41
2017-09-21T08:12:51.219Z,24.66
2017-09-21T08:15:19.942Z,23.64
2017-09-21T08:17:48.334Z,24.03
2017-09-21T08:20:16.714Z,24.22
2017-09-21T08:22:45.335Z,24.53
2017-09-21T08:25:14.460Z,24.95
2017-09-21T08:27:42.952Z,25.11
2017-09-21T08:30:11.897Z,26.23
2017-09-21T08:32:40.320Z,27.10
2017-09-21T08:35:08.770Z,27.54
2017-09-21T08:37:37.523Z,29.19
2017-09-21T08:40:05.946Z,31.07
2017-09-21T08:42:34.338Z,31.47
2017-09-21T08:45:03.431Z,29.97
2017-09-21T08:47:32.654Z,27.81
2017-09-21T08:50:01.156Z,29.13
2017-09-21T08:52:30.275Z,28.86
2017-09-21T08:54:58.618Z,29.76
2017-09-21T08:57:27.750Z,31.17
2017-09-21T08:59:56.869Z,28.53
2017-09-21T09:02:25.238Z,27.05
2017-09-21T09:04:53.667Z,26.53
2017-09-21T09:07:22.393Z,25.65
2017-09-21T09:09:50.738Z,24.77
2017-09-21T09:12:19.872Z,24.33
2017-09-21T09:14:49.672Z,23.81
2017-09-21T09:17:18.838Z,22.96
2017-09-21T09:19:47.236Z,23.12
2017-09-21T09:22:15.866Z,22.34
2017-09-21T09:24:44.264Z,23.05
2017-09-21T09:27:12.655Z,24.09
2017-09-21T09:29:41.618Z,25.32
2017-09-21T09:32:09.976Z,25.80
2017-09-21T09:34:38.323Z,25.96
2017-09-21T09:37:07.973Z,26.73
2017-09-21T09:39:36.353Z,26.79
2017-09-21T09:42:04.732Z,26.17
2017-09-21T09:44:35.004Z,27.05
2017-09-21T09:47:04.155Z,28.01
2017-09-21T09:49:33.043Z,29.00
2017-09-21T09:52:01.827Z,28.27
2017-09-21T09:54:30.183Z,27.06
2017-09-21T09:56:59.325Z,26.85
2017-09-21T09:59:28.334Z,26.75
2017-09-21T10:01:56.705Z,26.20
2017-09-21T10:04:25.112Z,25.99
2017-09-21T10:06:53.869Z,25.72
2017-09-21T10:09:22.202Z,26.21
2017-09-21T10:11:50.541Z,26.24
2017-09-21T10:14:19.977Z,26.13
2017-09-21T10:16:48.340Z,26.34
2017-09-21T10:19:17.474Z,27.33
2017-09-21T10:21:46.271Z,30.27
2017-09-21T10:24:14.774Z,34.03
2017-09-21T10:26:43.292Z,36.90
2017-09-21T10:29:12.937Z,39.04
2017-09-21T10:31:41.278Z,40.16
2017-09-21T10:34:09.629Z,40.26
2017-09-21T10:36:38.383Z,40.04
2017-09-21T10:39:07.284Z,39.68
2017-09-21T10:41:35.657Z,37.97
2017-09-21T10:44:04.629Z,38.16
2017-09-21T10:46:32.979Z,37.95
2017-09-21T10:49:01.361Z,35.94
2017-09-21T10:51:29.995Z,34.25
2017-09-21T10:53:59.150Z,32.63
2017-09-21T10:56:27.879Z,31.17
2017-09-21T10:58:56.999Z,29.95
2017-09-21T11:01:25.357Z,29.12
2017-09-21T11:03:53.723Z,28.13
2017-09-21T11:06:22.422Z,26.87
2017-09-21T11:08:50.795Z,26.11
2017-09-21T11:11:19.182Z,25.63
2017-09-21T11:13:48.795Z,25.35
2017-09-21T11:16:17.151Z,25.02
2017-09-21T11:18:45.495Z,24.85
2017-09-21T11:21:14.320Z,24.80
2017-09-21T11:23:42.928Z,24.67
2017-09-21T11:26:12.067Z,24.35
2017-09-21T11:28:40.874Z,24.39
2017-09-21T11:31:09.991Z,24.58
2017-09-21T11:33:38.357Z,24.65
2017-09-21T11:36:06.973Z,24.53
2017-09-21T11:38:35.358Z,24.69
2017-09-21T11:41:04.222Z,24.89
2017-09-21T11:43:32.936Z,24.93
2017-09-21T11:46:01.715Z,25.08
2017-09-21T11:48:30.061Z,25.18
2017-09-21T11:50:59.883Z,24.91
2017-09-21T11:53:28.265Z,25.04
2017-09-21T11:55:57.580Z,25.90
2017-09-21T11:58:26.863Z,27.38
2017-09-21T12:00:56.711Z,29.46
2017-09-21T12:03:25.059Z,32.95
2017-09-21T12:05:54.795Z,34.29
2017-09-21T12:08:23.158Z,32.40
2017-09-21T12:10:51.529Z,30.12
2017-09-21T12:13:21.060Z,29.08
2017-09-21T12:15:49.417Z,28.04
2017-09-21T12:18:18.033Z,27.19
2017-09-21T12:20:46.720Z,26.73
2017-09-21T12:23:15.111Z,26.41
2017-09-21T12:25:43.487Z,26.34
2017-09-21T12:28:12.172Z,26.07
2017-09-21T12:30:41.011Z,26.07
2017-09-21T12:33:09.373Z,26.10
2017-09-21T12:35:39.029Z,26.94
2017-09-21T12:38:07.389Z,30.05
2017-09-21T12:40:35.752Z,32.80
2017-09-21T12:43:04.535Z,34.78
2017-09-21T12:45:33.696Z,36.28
2017-09-21T12:48:02.062Z,36.88
2017-09-21T12:50:30.693Z,39.97
2017-09-21T12:52:59.822Z,39.94
2017-09-21T12:55:28.180Z,38.94
2017-09-21T12:57:58.042Z,36.85
2017-09-21T13:00:26.409Z,33.61
2017-09-21T13:02:54.777Z,31.78
2017-09-21T13:05:23.469Z,30.41
2017-09-21T13:07:51.813Z,29.56
2017-09-21T13:10:20.939Z,29.25
2017-09-21T13:12:49.605Z,28.83
2017-09-21T13:15:18.719Z,30.25
2017-09-21T13:17:47.063Z,32.44
2017-09-21T13:20:16.632Z,33.90
2017-09-21T13:22:44.973Z,35.27
2017-09-21T13:25:14.220Z,36.26
2017-09-21T13:27:43.054Z,37.32
2017-09-21T13:30:12.191Z,38.05
2017-09-21T13:32:40.558Z,38.54
2017-09-21T13:35:09.186Z,37.48
2017-09-21T13:37:37.535Z,34.73
2017-09-21T13:40:06.796Z,33.17
2017-09-21T13:42:35.694Z,32.15
2017-09-21T13:45:04.035Z,30.80
2017-09-21T13:47:33.161Z,30.10
2017-09-21T13:50:01.869Z,29.49
2017-09-21T13:52:30.934Z,29.25
2017-09-21T13:54:59.354Z,30.80
2017-09-21T13:57:28.006Z,33.00
2017-09-21T13:59:57.766Z,34.54
2017-09-21T14:02:26.942Z,35.28
2017-09-21T14:04:56.005Z,35.64
2017-09-21T14:07:25.357Z,35.84
2017-09-21T14:09:54.684Z,36.50
2017-09-21T14:12:23.518Z,36.05
2017-09-21T14:14:51.878Z,34.98
2017-09-21T14:17:20.990Z,35.61
2017-09-21T14:19:49.724Z,35.73
2017-09-21T14:22:18.097Z,36.10
2017-09-21T14:24:46.435Z,34.81
2017-09-21T14:27:15.426Z,33.72
2017-09-21T14:29:44.350Z,32.03
2017-09-21T14:32:12.734Z,31.45
2017-09-21T14:34:41.487Z,32.44
2017-09-21T14:37:10.410Z,32.55
2017-09-21T14:39:38.782Z,31.79
2017-09-21T14:42:07.548Z,30.71
2017-09-21T14:44:35.920Z,29.53
2017-09-21T14:47:05.973Z,29.18
2017-09-21T14:49:36.092Z,28.59
2017-09-21T14:52:04.469Z,28.38
2017-09-21T14:54:32.821Z,27.85
2017-09-21T14:57:01.529Z,27.53
2017-09-21T14:59:29.931Z,26.87
2017-09-21T15:01:58.311Z,26.43
2017-09-21T15:04:27.229Z,26.35
2017-09-21T15:06:56.486Z,26.29
2017-09-21T15:09:24.868Z,26.01
2017-09-21T15:11:53.622Z,25.94
2017-09-21T15:14:21.970Z,25.73
2017-09-21T15:16:50.356Z,25.72
2017-09-21T15:19:19.292Z,26.17
2017-09-21T15:21:48.043Z,27.15
2017-09-21T15:24:17.161Z,28.22
2017-09-21T15:26:45.843Z,28.55
2017-09-21T15:29:14.990Z,28.01
2017-09-21T15:31:43.319Z,27.97
2017-09-21T15:34:13.033Z,27.48
2017-09-21T15:36:41.386Z,27.55
2017-09-21T15:39:09.750Z,27.80
2017-09-21T15:41:38.600Z,28.01
2017-09-21T15:44:06.949Z,28.03
2017-09-21T15:46:36.067Z,28.03
2017-09-21T15:49:04.791Z,28.45
2017-09-21T15:51:33.192Z,28.46
2017-09-21T15:54:01.542Z,28.58
2017-09-21T15:56:30.323Z,28.08
2017-09-21T15:58:58.675Z,27.14
2017-09-21T16:01:27.679Z,26.72
2017-09-21T16:03:56.339Z,26.11
2017-09-21T16:06:24.706Z,25.72
2017-09-21T16:08:53.064Z,25.59
2017-09-21T16:11:22.033Z,25.39
2017-09-21T16:13:50.460Z,25.35
2017-09-21T16:16:19.664Z,25.18
2017-09-21T16:18:48.826Z,25.00
2017-09-21T16:21:17.939Z,25.04
2017-09-21T16:23:46.270Z,24.61
2017-09-21T16:26:15.890Z,24.45
2017-09-21T16:28:44.248Z,24.44
2017-09-21T16:31:12.618Z,24.21
2017-09-21T16:33:41.513Z,24.22
2017-09-21T16:36:10.294Z,24.11
2017-09-21T16:38:39.467Z,23.81
2017-09-21T16:41:08.655Z,23.78
2017-09-21T16:43:37.174Z,23.66
2017-09-21T16:46:06.350Z,23.52
2017-09-21T16:48:34.999Z,23.47
2017-09-21T16:51:03.689Z,23.40
2017-09-21T16:53:32.059Z,23.25
2017-09-21T16:56:00.930Z,23.08
2017-09-21T16:58:29.292Z,22.94
2017-09-21T17:00:58.416Z,22.87
2017-09-21T17:03:27.238Z,22.76
2017-09-21T17:05:55.593Z,22.68
2017-09-21T17:08:24.405Z,22.31
2017-09-21T17:10:53.868Z,22.08
2017-09-21T17:13:22.803Z,22.07
2017-09-21T17:15:51.182Z,22.03
2017-09-21T17:18:19.895Z,22.03
2017-09-21T17:20:49.148Z,21.99
2017-09-21T17:23:18.305Z,21.95
2017-09-21T17:25:47.885Z,21.85
2017-09-21T17:28:16.240Z,21.81
2017-09-21T17:30:44.604Z,21.67
2017-09-21T17:33:13.936Z,21.54
2017-09-21T17:35:42.312Z,21.23
2017-09-21T17:38:10.674Z,21.11
2017-09-21T17:40:39.919Z,21.12
2017-09-21T17:43:08.349Z,20.95
2017-09-21T17:45:37.007Z,20.84
2017-09-21T17:48:05.680Z,20.79
2017-09-21T17:50:35.562Z,20.79
2017-09-21T17:53:03.972Z,20.78
2017-09-21T17:55:32.906Z,20.51
2017-09-21T17:58:01.255Z,20.36
2017-09-21T18:00:29.621Z,20.39
2017-09-21T18:02:58.381Z,20.18
2017-09-21T18:05:26.998Z,20.26
2017-09-21T18:07:55.370Z,20.09
2017-09-21T18:10:24.349Z,20.02
2017-09-21T18:12:52.716Z,20.05
2017-09-21T18:15:21.895Z,20.03
2017-09-21T18:17:50.675Z,20.04
2017-09-21T18:20:19.049Z,20.04
2017-09-21T18:22:47.498Z,20.03
2017-09-21T18:25:16.953Z,19.81
2017-09-21T18:27:45.371Z,19.64
2017-09-21T18:30:13.743Z,19.56
2017-09-21T18:32:44.324Z,19.49
2017-09-21T18:35:12.775Z,19.61
2017-09-21T18:37:41.886Z,19.60
2017-09-21T18:40:10.667Z,19.49
2017-09-21T18:42:39.799Z,19.50
2017-09-21T18:45:08.176Z,19.55
2017-09-21T18:47:36.946Z,19.63
2017-09-21T18:50:05.290Z,19.45
2017-09-21T18:52:34.441Z,19.47
2017-09-21T18:55:03.226Z,19.45
2017-09-21T18:57:32.466Z,19.54
2017-09-21T19:00:00.853Z,19.47
2017-09-21T19:02:30.303Z,19.49
2017-09-21T19:04:59.303Z,19.36
2017-09-21T19:07:27.677Z,19.26
2017-09-21T19:09:57.266Z,19.19
2017-09-21T19:12:26.408Z,19.27
2017-09-21T19:14:54.759Z,19.25
2017-09-21T19:17:23.634Z,19.40
2017-09-21T19:19:52.077Z,19.25
2017-09-21T19:22:20.486Z,19.21
2017-09-21T19:24:50.683Z,19.19
2017-09-21T19:27:19.075Z,19.24
2017-09-21T19:29:49.118Z,19.19
2017-09-21T19:32:18.041Z,19.20
2017-09-21T19:34:46.986Z,19.18
2017-09-21T19:37:16.153Z,19.09
2017-09-21T19:39:45.128Z,19.08
2017-09-21T19:42:13.582Z,18.95
2017-09-21T19:44:41.945Z,18.72
2017-09-21T19:47:11.510Z,18.74
2017-09-21T19:49:39.937Z,18.49
2017-09-21T19:52:09.081Z,18.59
2017-09-21T19:54:38.430Z,18.53
2017-09-21T19:57:08.493Z,18.57
2017-09-21T19:59:36.913Z,18.51
2017-09-21T20:02:06.575Z,18.39
2017-09-21T20:04:35.285Z,18.36
2017-09-21T20:07:03.669Z,18.33
2017-09-21T20:09:33.099Z,18.23
2017-09-21T20:12:02.228Z,18.14
2017-09-21T20:14:30.593Z,18.14
2017-09-21T20:17:00.027Z,18.05
2017-09-21T20:19:29.208Z,18.17
2017-09-21T20:21:57.629Z,18.23
2017-09-21T20:24:26.710Z,18.07
2017-09-21T20:26:55.149Z,18.00
2017-09-21T20:29:24.266Z,17.92
2017-09-21T20:31:53.051Z,17.95
2017-09-21T20:34:21.402Z,17.96
2017-09-21T20:36:50.516Z,17.83
2017-09-21T20:39:20.179Z,17.95
2017-09-21T20:41:48.534Z,17.94
2017-09-21T20:44:17.723Z,17.92
2017-09-21T20:46:46.842Z,17.94
2017-09-21T20:49:15.202Z,17.71
2017-09-21T20:51:44.152Z,17.72
2017-09-21T20:54:13.649Z,17.57
2017-09-21T20:56:42.006Z,17.66
2017-09-21T20:59:10.887Z,17.39
2017-09-21T21:01:39.581Z,17.48
2017-09-21T21:04:07.986Z,17.47
2017-09-21T21:06:36.368Z,17.66
2017-09-21T21:09:05.979Z,17.53
2017-09-21T21:11:35.192Z,17.60
2017-09-21T21:14:03.611Z,17.67
2017-09-21T21:16:32.256Z,17.74
2017-09-21T21:19:00.697Z,17.77
2017-09-21T21:21:29.046Z,17.86
2017-09-21T21:23:57.923Z,17.98
2017-09-21T21:26:26.328Z,18.02
2017-09-21T21:28:54.758Z,18.14
2017-09-21T21:31:24.376Z,18.10
2017-09-21T21:33:52.774Z,18.16
2017-09-21T21:36:21.894Z,18.20
2017-09-21T21:38:50.616Z,18.18
2017-09-21T21:41:19.032Z,18.18
2017-09-21T21:43:47.687Z,18.22
2017-09-21T21:46:16.594Z,18.25
2017-09-21T21:48:45.808Z,18.04
2017-09-21T21:51:14.170Z,18.16
2017-09-21T21:53:43.936Z,18.21
2017-09-21T21:56:12.482Z,18.17
2017-09-21T21:58:41.046Z,18.17
2017-09-21T22:01:10.660Z,18.32
2017-09-21T22:03:39.766Z,18.30
2017-09-21T22:06:09.474Z,18.35
2017-09-21T22:08:38.381Z,18.35
2017-09-21T22:11:06.730Z,18.22
2017-09-21T22:13:35.890Z,18.17
2017-09-21T22:16:05.364Z,18.09
2017-09-21T22:18:33.941Z,18.00
2017-09-21T22:21:02.310Z,18.01
2017-09-21T22:23:31.935Z,18.12
2017-09-21T22:26:00.298Z,17.89
2017-09-21T22:28:28.677Z,17.66
2017-09-21T22:30:58.683Z,17.78
2017-09-21T22:33:27.075Z,17.56
2017-09-21T22:35:55.678Z,17.54
2017-09-21T22:38:24.439Z,17.76
2017-09-21T22:40:54.131Z,17.88
2017-09-21T22:43:22.575Z,17.79
2017-09-21T22:45:51.510Z,17.60
2017-09-21T22:48:20.126Z,17.54
2017-09-21T22:50:49.263Z,17.43
2017-09-21T22:53:18.153Z,17.40
2017-09-21T22:55:46.518Z,17.27
2017-09-21T22:58:14.920Z,17.28
2017-09-21T23:00:43.858Z,17.18
2017-09-21T23:03:12.235Z,17.12
2017-09-21T23:05:40.594Z,17.22
2017-09-21T23:08:09.276Z,17.31
2017-09-21T23:10:38.555Z,17.20
2017-09-21T23:13:07.820Z,17.18
2017-09-21T23:15:36.458Z,17.16
2017-09-21T23:18:04.860Z,17.25
2017-09-21T23:20:34.055Z,17.31
2017-09-21T23:23:03.642Z,17.33
2017-09-21T23:25:32.077Z,17.31
2017-09-21T23:28:01.261Z,17.31
2017-09-21T23:30:30.089Z,17.07
2017-09-21T23:32:58.472Z,17.09
2017-09-21T23:35:26.818Z,17.24
2017-09-21T23:37:55.626Z,17.24
2017-09-21T23:40:24.016Z,17.17
2017-09-21T23:42:52.950Z,17.12
2017-09-21T23:45:21.858Z,17.24
2017-09-21T23:47:50.409Z,17.42
2017-09-21T23:50:18.800Z,17.44
2017-09-21T23:52:47.504Z,17.50
2017-09-21T23:55:15.942Z,17.59
2017-09-21T23:57:44.875Z,17.63
